createdAt,value
2023-03-24T00:01:36.470Z,12.30
2023-03-24T00:04:10.660Z,11.60
2023-03-24T00:06:44.953Z,11.20
2023-03-24T00:09:18.832Z,11.80
2023-03-24T00:11:52.686Z,11.60
2023-03-24T00:14:26.570Z,11.20
2023-03-24T00:17:00.693Z,12.20
2023-03-24T00:19:38.691Z,11.70
2023-03-24T00:22:14.882Z,13.90
2023-03-24T00:24:49.956Z,11.60
2023-03-24T00:27:23.732Z,11.80
2023-03-24T00:29:59.952Z,12.40
2023-03-24T00:32:34.359Z,13.20
2023-03-24T00:35:10.644Z,12.90
2023-03-24T00:37:45.595Z,13.20
2023-03-24T00:40:21.365Z,15.40
2023-03-24T00:42:54.873Z,13.40
2023-03-24T00:45:29.766Z,12.10
2023-03-24T00:48:05.414Z,11.80
2023-03-24T00:50:39.185Z,11.70
2023-03-24T00:53:12.927Z,11.20
2023-03-24T00:55:49.973Z,12.20
2023-03-24T00:58:24.478Z,11.80
2023-03-24T01:00:59.388Z,11.60
2023-03-24T01:03:34.619Z,12.20
2023-03-24T01:06:11.738Z,12.30
2023-03-24T01:08:45.598Z,14.10
2023-03-24T01:11:19.537Z,14.20
2023-03-24T01:13:55.088Z,16.40
2023-03-24T01:16:29.209Z,15.80
2023-03-24T01:19:02.904Z,15.40
2023-03-24T01:21:37.179Z,12.70
2023-03-24T01:24:11.493Z,14.60
2023-03-24T01:26:45.630Z,14.20
2023-03-24T01:29:19.322Z,14.30
2023-03-24T01:31:53.253Z,13.60
2023-03-24T01:34:27.085Z,14.00
2023-03-24T01:37:00.817Z,14.70
2023-03-24T01:39:34.304Z,14.10
2023-03-24T01:42:08.100Z,11.80
2023-03-24T01:44:41.762Z,11.80
2023-03-24T01:47:15.298Z,12.30
2023-03-24T01:49:52.327Z,12.90
2023-03-24T01:52:31.489Z,15.50
2023-03-24T01:55:09.095Z,12.50
2023-03-24T01:57:46.337Z,11.80
2023-03-24T02:00:22.486Z,12.80
2023-03-24T02:03:18.821Z,12.20
2023-03-24T02:06:02.696Z,14.70
2023-03-24T02:08:43.168Z,12.80
2023-03-24T02:11:16.981Z,12.90
2023-03-24T02:13:57.052Z,12.30
2023-03-24T02:17:00.427Z,13.00
2023-03-24T02:23:04.712Z,12.60
2023-03-24T02:26:09.478Z,10.50
2023-03-24T02:28:51.712Z,12.10
2023-03-24T02:31:53.712Z,10.80
2023-03-24T02:35:13.527Z,11.20
2023-03-24T02:38:09.068Z,10.40
2023-03-24T02:40:46.622Z,10.90
2023-03-24T02:43:35.690Z,11.80
2023-03-24T02:46:19.267Z,11.80
2023-03-24T02:49:05.695Z,13.20
2023-03-24T02:51:48.980Z,12.10
2023-03-24T02:54:28.112Z,12.30
2023-03-24T02:57:06.255Z,12.20
2023-03-24T03:00:17.209Z,10.60
2023-03-24T03:03:12.395Z,11.40
2023-03-24T03:05:52.865Z,11.50
2023-03-24T03:08:29.672Z,12.10
2023-03-24T03:11:06.312Z,12.60
2023-03-24T03:13:42.506Z,13.00
2023-03-24T03:16:19.873Z,11.60
2023-03-24T03:18:57.685Z,9.80
2023-03-24T03:21:39.464Z,11.50
2023-03-24T03:24:17.085Z,10.90
2023-03-24T03:26:52.791Z,12.50
2023-03-24T03:29:30.236Z,9.70
2023-03-24T03:32:09.624Z,11.20
2023-03-24T03:34:48.333Z,11.60
2023-03-24T03:37:29.466Z,12.70
2023-03-24T03:40:09.732Z,12.60
2023-03-24T03:42:44.886Z,13.10
2023-03-24T03:45:19.042Z,12.10
2023-03-24T03:47:52.837Z,12.60
2023-03-24T03:50:26.877Z,12.50
2023-03-24T03:53:01.453Z,13.30
2023-03-24T03:55:35.755Z,13.80
2023-03-24T03:58:10.509Z,10.80
2023-03-24T04:00:48.671Z,10.50
2023-03-24T04:04:04.350Z,14.50
2023-03-24T04:07:08.730Z,14.40
2023-03-24T04:09:54.140Z,11.70
2023-03-24T04:12:44.109Z,14.00
2023-03-24T04:16:00.599Z,14.00
2023-03-24T04:19:25.788Z,13.30
2023-03-24T04:22:17.666Z,12.90
2023-03-24T04:24:57.435Z,14.50
2023-03-24T04:27:40.459Z,13.60
2023-03-24T04:30:23.724Z,16.30
2023-03-24T04:33:01.043Z,14.10
2023-03-24T04:35:41.151Z,13.00
2023-03-24T04:38:30.610Z,12.80
2023-03-24T04:41:28.048Z,13.30
2023-03-24T04:44:12.457Z,15.20
2023-03-24T04:47:03.734Z,14.80
2023-03-24T04:49:41.010Z,13.90
2023-03-24T04:52:17.517Z,14.00
2023-03-24T04:54:52.022Z,12.60
2023-03-24T04:57:26.937Z,16.20
2023-03-24T05:00:09.908Z,13.80
2023-03-24T05:02:45.631Z,14.40
2023-03-24T05:05:26.117Z,14.20
2023-03-24T05:08:00.447Z,17.10
2023-03-24T05:10:35.808Z,11.80
2023-03-24T05:13:11.138Z,15.40
2023-03-24T05:15:58.641Z,15.50
2023-03-24T05:18:37.586Z,17.60
2023-03-24T05:21:12.574Z,18.80
2023-03-24T05:23:47.144Z,12.60
2023-03-24T05:26:21.025Z,15.60
2023-03-24T05:29:12.866Z,15.80
2023-03-24T05:31:46.807Z,14.80
2023-03-24T05:37:03.656Z,14.80
2023-03-24T05:39:37.281Z,15.70
2023-03-24T05:42:18.799Z,16.00
2023-03-24T05:44:52.864Z,15.20
2023-03-24T05:47:32.637Z,13.90
2023-03-24T05:50:06.715Z,15.00
2023-03-24T05:52:40.404Z,19.20
2023-03-24T05:55:30.914Z,20.10
2023-03-24T05:58:10.177Z,21.70
2023-03-24T06:00:51.487Z,20.10
2023-03-24T06:03:34.827Z,18.10
2023-03-24T06:06:20.436Z,21.10
2023-03-24T06:08:55.453Z,18.60
2023-03-24T06:11:30.781Z,17.50
2023-03-24T06:14:09.721Z,21.10
2023-03-24T06:16:52.396Z,21.80
2023-03-24T06:19:26.436Z,23.90
2023-03-24T06:22:26.606Z,21.10
2023-03-24T06:25:00.917Z,24.00
2023-03-24T06:27:36.502Z,22.50
2023-03-24T06:30:12.883Z,21.90
2023-03-24T06:32:48.003Z,19.90
2023-03-24T06:35:22.129Z,23.10
2023-03-24T06:38:05.719Z,19.60
2023-03-24T06:40:39.339Z,19.50
2023-03-24T06:43:13.174Z,20.00
2023-03-24T06:45:49.540Z,20.90
2023-03-24T06:48:25.915Z,16.70
2023-03-24T06:51:05.917Z,19.70
2023-03-24T06:53:41.696Z,21.80
2023-03-24T06:56:17.609Z,19.60
2023-03-24T06:58:55.528Z,18.10
2023-03-24T07:01:40.413Z,17.00
2023-03-24T07:04:37.167Z,17.30
2023-03-24T07:10:30.474Z,17.60
2023-03-24T07:13:04.643Z,17.10
2023-03-24T07:15:38.961Z,18.90
2023-03-24T07:18:13.926Z,16.10
2023-03-24T07:20:52.185Z,15.50
2023-03-24T07:23:28.408Z,16.00
2023-03-24T07:26:34.931Z,15.30
2023-03-24T07:29:17.322Z,13.90
2023-03-24T07:32:08.205Z,13.20
2023-03-24T07:34:44.270Z,15.00
2023-03-24T07:37:18.139Z,14.10
2023-03-24T07:39:51.656Z,13.20
2023-03-24T07:42:25.819Z,15.50
2023-03-24T07:45:18.842Z,13.10
2023-03-24T07:47:52.627Z,12.60
2023-03-24T07:50:27.035Z,12.80
2023-03-24T07:53:01.113Z,12.80
2023-03-24T07:55:35.025Z,14.50
2023-03-24T07:58:22.117Z,13.70
2023-03-24T08:01:13.335Z,15.80
2023-03-24T08:06:49.358Z,13.80
2023-03-24T08:09:24.477Z,15.50
2023-03-24T08:12:02.216Z,14.80
2023-03-24T08:14:41.195Z,15.20
2023-03-24T08:17:14.938Z,14.80
2023-03-24T08:19:59.981Z,15.30
2023-03-24T08:22:34.776Z,14.90
2023-03-24T08:25:11.248Z,18.10
2023-03-24T08:27:45.257Z,13.90
2023-03-24T08:30:21.487Z,15.40
2023-03-24T08:32:56.757Z,17.50
2023-03-24T08:35:32.896Z,17.30
2023-03-24T08:38:07.311Z,16.50
2023-03-24T08:40:42.672Z,15.10
2023-03-24T08:43:20.338Z,18.40
2023-03-24T08:45:53.719Z,16.90
2023-03-24T08:48:28.171Z,17.00
2023-03-24T08:51:01.893Z,17.60
2023-03-24T08:53:35.353Z,15.40
2023-03-24T08:56:09.599Z,13.30
2023-03-24T08:58:43.201Z,15.90
2023-03-24T09:01:17.072Z,16.70
2023-03-24T09:03:50.780Z,16.80
2023-03-24T09:06:24.222Z,16.40
2023-03-24T09:08:58.096Z,13.60
2023-03-24T09:11:31.895Z,11.40
2023-03-24T09:14:06.075Z,13.90
2023-03-24T09:16:40.095Z,14.20
2023-03-24T09:19:14.231Z,13.40
2023-03-24T09:21:50.189Z,13.60
2023-03-24T09:24:24.148Z,12.60
2023-03-24T09:26:58.089Z,14.00
2023-03-24T09:29:31.708Z,13.50
2023-03-24T09:32:05.579Z,13.50
2023-03-24T09:34:39.598Z,12.80
2023-03-24T09:37:13.241Z,12.80
2023-03-24T09:39:46.587Z,14.60
2023-03-24T09:42:25.080Z,12.70
2023-03-24T09:45:00.945Z,13.60
2023-03-24T09:47:40.410Z,12.90
2023-03-24T09:50:23.269Z,11.40
2023-03-24T09:53:01.139Z,12.20
2023-03-24T09:55:36.793Z,13.10
2023-03-24T09:58:13.720Z,12.80
2023-03-24T10:00:48.939Z,12.90
2023-03-24T10:03:24.785Z,13.50
2023-03-24T10:06:07.728Z,12.90
2023-03-24T10:08:45.748Z,12.30
2023-03-24T10:11:26.752Z,14.00
2023-03-24T10:14:18.855Z,11.80
2023-03-24T10:17:02.421Z,11.30
2023-03-24T10:19:47.663Z,10.70
2023-03-24T10:22:27.559Z,12.20
2023-03-24T10:25:08.781Z,12.40
2023-03-24T10:27:48.546Z,11.90
2023-03-24T10:30:25.432Z,11.40
2023-03-24T10:32:59.503Z,10.50
2023-03-24T10:35:38.506Z,15.30
2023-03-24T10:38:19.891Z,13.40
2023-03-24T10:40:54.329Z,11.70
2023-03-24T10:43:30.074Z,13.30
2023-03-24T10:46:05.364Z,12.90
2023-03-24T10:48:45.761Z,13.30
2023-03-24T10:51:21.828Z,11.80
2023-03-24T10:54:13.732Z,13.50
2023-03-24T10:56:48.319Z,13.00
2023-03-24T10:59:30.034Z,13.30
2023-03-24T11:02:17.229Z,10.40
2023-03-24T11:04:56.490Z,11.80
2023-03-24T11:07:36.123Z,11.60
2023-03-24T11:10:19.241Z,11.60
2023-03-24T11:13:08.215Z,10.40
2023-03-24T11:15:57.170Z,10.90
2023-03-24T11:18:30.899Z,12.10
2023-03-24T11:21:08.565Z,10.30
2023-03-24T11:23:45.487Z,12.70
2023-03-24T11:26:22.347Z,12.30
2023-03-24T11:28:59.035Z,12.10
2023-03-24T11:31:38.567Z,13.00
2023-03-24T11:34:17.197Z,11.70
2023-03-24T11:36:58.300Z,12.60
2023-03-24T11:39:34.463Z,11.20
2023-03-24T11:42:17.547Z,12.10
2023-03-24T11:44:53.943Z,13.30
2023-03-24T11:47:32.613Z,14.10
2023-03-24T11:50:20.199Z,13.30
2023-03-24T11:52:58.732Z,12.00
2023-03-24T11:55:40.146Z,12.50
2023-03-24T11:58:25.842Z,10.80
2023-03-24T12:01:05.685Z,11.60
2023-03-24T12:04:20.206Z,10.50
2023-03-24T12:07:15.061Z,14.60
2023-03-24T12:09:55.660Z,11.50
2023-03-24T12:12:40.426Z,10.40
2023-03-24T12:15:34.613Z,11.10
2023-03-24T12:18:21.987Z,11.60
2023-03-24T12:21:01.904Z,10.50
2023-03-24T12:23:47.432Z,9.70
2023-03-24T12:26:25.348Z,10.60
2023-03-24T12:29:24.123Z,9.50
2023-03-24T12:32:18.366Z,9.40
2023-03-24T12:35:16.993Z,11.30
2023-03-24T12:38:00.072Z,12.70
2023-03-24T12:41:01.957Z,9.30
2023-03-24T12:43:46.819Z,10.50
2023-03-24T12:46:47.781Z,9.60
2023-03-24T12:49:51.012Z,10.10
2023-03-24T12:52:37.338Z,10.60
2023-03-24T12:55:18.058Z,7.80
2023-03-24T12:57:59.395Z,7.50
2023-03-24T13:00:36.683Z,8.00
2023-03-24T13:03:18.259Z,7.90
2023-03-24T13:06:04.450Z,10.50
2023-03-24T13:08:49.723Z,7.10
2023-03-24T13:11:33.328Z,8.00
2023-03-24T13:14:14.592Z,12.20
2023-03-24T13:16:49.871Z,7.10
2023-03-24T13:19:27.605Z,7.90
2023-03-24T13:22:01.992Z,7.10
2023-03-24T13:24:36.683Z,7.80
2023-03-24T13:27:16.267Z,10.30
2023-03-24T13:30:25.011Z,8.00
2023-03-24T13:33:02.466Z,6.70
2023-03-24T13:36:00.140Z,8.10
2023-03-24T13:38:39.123Z,7.60
2023-03-24T13:41:19.710Z,8.80
2023-03-24T13:44:00.723Z,7.20
2023-03-24T13:46:37.324Z,7.70
2023-03-24T13:49:17.084Z,8.30
2023-03-24T13:51:51.671Z,6.80
2023-03-24T13:54:28.156Z,8.10
2023-03-24T13:57:05.881Z,7.00
2023-03-24T14:00:00.182Z,9.80
2023-03-24T14:02:50.237Z,6.30
2023-03-24T14:05:57.389Z,6.70
2023-03-24T14:08:56.187Z,7.50
2023-03-24T14:12:09.796Z,9.10
2023-03-24T14:15:15.784Z,6.50
2023-03-24T14:17:55.494Z,5.30
2023-03-24T14:20:36.353Z,7.80
2023-03-24T14:23:25.166Z,8.00
2023-03-24T14:26:00.358Z,7.80
2023-03-24T14:28:39.285Z,7.70
2023-03-24T14:31:25.890Z,10.20
2023-03-24T14:34:11.174Z,7.30
2023-03-24T14:36:46.394Z,8.90
2023-03-24T14:39:35.028Z,7.90
2023-03-24T14:45:03.232Z,7.10
2023-03-24T14:47:39.992Z,8.60
2023-03-24T14:50:23.011Z,7.10
2023-03-24T14:52:59.496Z,6.00
2023-03-24T14:55:35.258Z,7.70
2023-03-24T14:58:22.822Z,7.10
2023-03-24T15:03:41.738Z,6.90
2023-03-24T15:06:19.963Z,9.20
2023-03-24T15:08:55.566Z,6.20
2023-03-24T15:11:31.888Z,7.50
2023-03-24T15:14:06.610Z,8.50
2023-03-24T15:16:41.442Z,4.70
2023-03-24T15:19:24.350Z,8.60
2023-03-24T15:22:04.127Z,5.60
2023-03-24T15:24:40.319Z,5.90
2023-03-24T15:27:27.930Z,7.90
2023-03-24T15:30:03.134Z,7.70
2023-03-24T15:32:40.571Z,9.60
2023-03-24T15:35:18.645Z,7.70
2023-03-24T15:37:56.918Z,8.30
2023-03-24T15:40:39.354Z,7.80
2023-03-24T15:43:22.047Z,7.60
2023-03-24T15:46:08.746Z,7.20
2023-03-24T15:48:49.559Z,6.60
2023-03-24T15:51:43.694Z,9.90
2023-03-24T15:54:24.580Z,9.80
2023-03-24T15:57:18.627Z,10.90
2023-03-24T15:59:58.404Z,9.20
2023-03-24T16:02:39.310Z,7.80
2023-03-24T16:05:20.104Z,6.80
2023-03-24T16:08:04.014Z,7.70
2023-03-24T16:10:43.145Z,7.90
2023-03-24T16:13:22.180Z,7.40
2023-03-24T16:16:00.333Z,7.30
2023-03-24T16:18:37.209Z,9.20
2023-03-24T16:21:17.242Z,7.80
2023-03-24T16:23:51.390Z,8.50
2023-03-24T16:26:27.086Z,9.10
2023-03-24T16:29:19.335Z,8.20
2023-03-24T16:31:54.089Z,9.30
2023-03-24T16:34:28.058Z,8.00
2023-03-24T16:37:03.037Z,8.80
2023-03-24T16:39:36.693Z,12.30
2023-03-24T16:42:10.950Z,10.50
2023-03-24T16:44:45.846Z,14.90
2023-03-24T16:47:19.951Z,13.20
2023-03-24T16:49:53.815Z,14.20
2023-03-24T16:52:27.690Z,21.70
2023-03-24T16:55:01.722Z,22.90
2023-03-24T16:57:36.968Z,12.50
2023-03-24T17:00:14.184Z,10.60
2023-03-24T17:02:49.956Z,10.60
2023-03-24T17:05:28.586Z,10.40
2023-03-24T17:10:35.901Z,11.50
2023-03-24T17:13:09.188Z,11.00
2023-03-24T17:15:44.194Z,12.10
2023-03-24T17:18:18.400Z,12.40
2023-03-24T17:20:53.570Z,12.50
2023-03-24T17:23:30.864Z,11.40
2023-03-24T17:26:05.827Z,12.20
2023-03-24T17:28:41.685Z,13.60
2023-03-24T17:31:16.766Z,13.40
2023-03-24T17:33:52.550Z,12.90
2023-03-24T17:36:27.577Z,13.40
2023-03-24T17:39:05.551Z,14.00
2023-03-24T17:41:45.554Z,16.10
2023-03-24T17:44:21.877Z,15.90
2023-03-24T17:46:57.808Z,16.10
2023-03-24T17:49:34.120Z,13.90
2023-03-24T17:52:10.149Z,17.40
2023-03-24T17:54:46.471Z,21.10
2023-03-24T17:57:22.503Z,18.90
2023-03-24T18:00:01.169Z,16.50
2023-03-24T18:02:44.176Z,16.80
2023-03-24T18:05:18.979Z,18.10
2023-03-24T18:07:53.835Z,15.70
2023-03-24T18:10:28.549Z,14.50
2023-03-24T18:13:04.160Z,13.90
2023-03-24T18:15:42.972Z,13.30
2023-03-24T18:18:19.568Z,12.80
2023-03-24T18:20:54.993Z,12.00
2023-03-24T18:23:32.960Z,12.40
2023-03-24T18:26:10.716Z,12.00
2023-03-24T18:28:50.864Z,11.30
2023-03-24T18:31:26.955Z,13.00
2023-03-24T18:34:04.075Z,12.00
2023-03-24T18:36:47.318Z,10.90
2023-03-24T18:39:25.940Z,11.20
2023-03-24T18:42:03.302Z,11.60
2023-03-24T18:44:38.967Z,11.00
2023-03-24T18:47:15.488Z,10.30
2023-03-24T18:49:51.735Z,10.40
2023-03-24T18:52:30.692Z,8.50
2023-03-24T18:55:06.662Z,9.20
2023-03-24T18:57:46.173Z,8.90
2023-03-24T19:00:28.548Z,11.40
2023-03-24T19:03:07.600Z,12.00
2023-03-24T19:05:45.793Z,9.30
2023-03-24T19:08:22.768Z,10.50
2023-03-24T19:11:03.816Z,12.30
2023-03-24T19:13:41.904Z,9.90
2023-03-24T19:16:19.396Z,9.90
2023-03-24T19:18:58.790Z,11.50
2023-03-24T19:21:36.681Z,10.40
2023-03-24T19:24:20.110Z,12.30
2023-03-24T19:26:56.339Z,10.90
2023-03-24T19:29:32.903Z,12.50
2023-03-24T19:32:08.210Z,10.50
2023-03-24T19:34:43.897Z,10.80
2023-03-24T19:37:22.301Z,13.00
2023-03-24T19:40:00.297Z,12.60
2023-03-24T19:42:36.300Z,12.40
2023-03-24T19:45:16.718Z,11.90
2023-03-24T19:47:54.567Z,12.40
2023-03-24T19:50:41.388Z,12.40
2023-03-24T19:53:21.616Z,15.80
2023-03-24T19:56:04.170Z,16.40
2023-03-24T19:58:40.157Z,14.00
2023-03-24T20:01:22.679Z,61.60
2023-03-24T20:03:59.809Z,16.20
2023-03-24T20:06:37.746Z,14.70
2023-03-24T20:09:14.513Z,15.70
2023-03-24T20:11:55.028Z,15.80
2023-03-24T20:14:35.273Z,15.90
2023-03-24T20:17:14.073Z,15.90
2023-03-24T20:19:52.806Z,16.60
2023-03-24T20:22:31.381Z,14.10
2023-03-24T20:25:10.600Z,14.70
2023-03-24T20:27:48.545Z,14.10
2023-03-24T20:30:29.196Z,16.20
2023-03-24T20:33:09.765Z,16.30
2023-03-24T20:35:49.313Z,15.20
2023-03-24T20:41:09.946Z,13.90
2023-03-24T20:43:46.254Z,15.10
2023-03-24T20:46:22.701Z,13.30
2023-03-24T20:49:00.505Z,13.40
2023-03-24T20:51:38.065Z,12.80
2023-03-24T20:54:17.264Z,14.60
2023-03-24T20:56:54.323Z,15.70
2023-03-24T20:59:32.838Z,13.20
2023-03-24T21:02:10.771Z,13.00
2023-03-24T21:04:48.117Z,17.10
2023-03-24T21:07:26.039Z,15.10
2023-03-24T21:10:05.263Z,14.30
2023-03-24T21:12:53.453Z,13.10
2023-03-24T21:15:32.551Z,12.90
2023-03-24T21:18:08.740Z,13.60
2023-03-24T21:20:56.357Z,12.00
2023-03-24T21:23:36.081Z,14.80
2023-03-24T21:26:16.267Z,13.80
2023-03-24T21:28:51.908Z,12.80
2023-03-24T21:31:28.262Z,13.70
2023-03-24T21:34:03.563Z,16.00
2023-03-24T21:36:38.733Z,14.40
2023-03-24T21:39:13.049Z,13.90
2023-03-24T21:41:48.194Z,14.40
2023-03-24T21:44:21.382Z,13.20
2023-03-24T21:46:55.057Z,13.70
2023-03-24T21:49:28.755Z,14.30
2023-03-24T21:52:05.881Z,13.70
2023-03-24T21:54:42.215Z,15.50
2023-03-24T21:57:16.439Z,13.90
2023-03-24T21:59:50.394Z,12.40
2023-03-24T22:02:25.419Z,13.30
2023-03-24T22:05:03.649Z,12.60
2023-03-24T22:07:39.785Z,13.40
2023-03-24T22:10:15.703Z,14.00
2023-03-24T22:12:49.632Z,14.90
2023-03-24T22:15:23.393Z,15.10
2023-03-24T22:17:57.270Z,13.00
2023-03-24T22:20:32.230Z,14.00
2023-03-24T22:23:05.930Z,10.60
2023-03-24T22:25:39.908Z,11.40
2023-03-24T22:28:13.623Z,8.80
2023-03-24T22:30:47.176Z,12.00
2023-03-24T22:33:20.982Z,12.10
2023-03-24T22:35:58.146Z,10.90
2023-03-24T22:38:33.017Z,10.40
2023-03-24T22:41:09.914Z,8.90
2023-03-24T22:43:43.656Z,10.20
2023-03-24T22:46:17.233Z,10.30
2023-03-24T22:48:51.219Z,9.20
2023-03-24T22:51:25.214Z,9.50
2023-03-24T22:53:59.446Z,9.50
2023-03-24T22:56:33.269Z,9.40
2023-03-24T22:59:07.195Z,9.30
2023-03-24T23:01:41.300Z,9.40
2023-03-24T23:04:15.545Z,7.90
2023-03-24T23:06:49.369Z,10.50
2023-03-24T23:09:22.904Z,9.60
2023-03-24T23:11:56.790Z,7.80
2023-03-24T23:14:30.492Z,8.10
2023-03-24T23:17:05.421Z,9.00
2023-03-24T23:19:39.867Z,8.40
2023-03-24T23:22:13.778Z,9.70
2023-03-24T23:24:48.204Z,7.90
2023-03-24T23:27:22.652Z,11.60
2023-03-24T23:29:57.090Z,9.00
2023-03-24T23:32:33.791Z,8.20
2023-03-24T23:35:09.408Z,8.70
2023-03-24T23:37:42.993Z,7.80
2023-03-24T23:40:18.271Z,9.20
2023-03-24T23:42:52.881Z,8.00
2023-03-24T23:45:26.519Z,9.10
2023-03-24T23:48:00.966Z,8.30
2023-03-24T23:50:35.252Z,10.00
2023-03-24T23:53:09.258Z,10.20
2023-03-24T23:55:43.354Z,9.10
2023-03-24T23:58:17.112Z,10.80
